Time;durP1;ratioP1;P1;durP2;ratioP2;P2;SDS_P1;SDS_P2;PMS_P1;PMS_P2;Temp;Humidity;BMP_temperature;BMP_pressure;BME280_temperature;BME280_humidity;BME280_pressure;Samples;Min_cycle;Max_cycle;Signal;HPM_P1;HPM_P2
2024/01/30 00:02:11;;;;;;;17.42;12.02;;;23.60;38.80;;;;;;6174365;28;82973;-51
2024/01/30 00:05:11;;;;;;;17.95;11.73;;;23.60;38.70;;;;;;6168676;28;83411;-49
2024/01/30 00:08:12;;;;;;;19.17;11.90;;;23.60;38.90;;;;;;6163013;28;83105;-48
2024/01/30 00:11:12;;;;;;;20.70;12.73;;;23.60;38.80;;;;;;6172311;28;83490;-49
2024/01/30 00:14:13;;;;;;;20.98;13.30;;;23.60;38.90;;;;;;6174479;28;83681;-46
2024/01/30 00:17:14;;;;;;;20.48;12.38;;;23.60;38.90;;;;;;6173224;28;83015;-52
2024/01/30 00:20:15;;;;;;;18.70;12.23;;;23.60;38.80;;;;;;6173360;28;84964;-53
2024/01/30 00:23:15;;;;;;;18.30;12.00;;;23.60;38.70;;;;;;6173049;28;84244;-51
2024/01/30 00:26:16;;;;;;;18.70;12.30;;;23.60;39.40;;;;;;6173662;28;83371;-52
2024/01/30 00:29:19;;;;;;;19.90;12.68;;;23.60;38.80;;;;;;6174872;28;82968;-52
2024/01/30 00:32:19;;;;;;;20.00;12.93;;;23.60;38.70;;;;;;6161041;28;83309;-49
2024/01/30 00:35:22;;;;;;;18.92;12.52;;;23.60;38.60;;;;;;6170433;28;83261;-47
2024/01/30 00:38:22;;;;;;;21.48;12.38;;;23.60;38.60;;;;;;6171945;28;83414;-52
2024/01/30 00:41:23;;;;;;;19.63;12.45;;;23.60;38.60;;;;;;6164587;28;83609;-50
2024/01/30 00:44:23;;;;;;;20.50;13.07;;;23.60;38.50;;;;;;6170863;28;83498;-48
2024/01/30 00:47:24;;;;;;;20.02;12.80;;;23.60;38.70;;;;;;6169895;28;84453;-48
2024/01/30 00:50:24;;;;;;;21.90;12.48;;;23.60;38.70;;;;;;6160021;28;84371;-51
2024/01/30 00:53:25;;;;;;;21.95;12.93;;;23.60;38.60;;;;;;6161454;28;83190;-51
2024/01/30 00:56:25;;;;;;;20.08;13.20;;;23.60;38.60;;;;;;6173350;28;83609;-52
2024/01/30 00:59:25;;;;;;;22.60;13.68;;;23.60;38.60;;;;;;6169591;28;83778;-51
2024/01/30 01:02:26;;;;;;;21.45;13.07;;;23.60;38.60;;;;;;6164507;28;83019;-51
2024/01/30 01:05:26;;;;;;;23.58;13.77;;;23.60;38.80;;;;;;6153538;28;83842;-55
2024/01/30 01:08:27;;;;;;;20.23;13.10;;;23.60;38.70;;;;;;6148941;28;83868;-47
2024/01/30 01:11:27;;;;;;;20.42;13.43;;;23.60;38.70;;;;;;6174022;28;83270;-48
2024/01/30 01:14:28;;;;;;;22.50;13.35;;;23.60;38.90;;;;;;6172580;28;83154;-48
2024/01/30 01:17:28;;;;;;;17.98;12.65;;;23.60;38.80;;;;;;6172236;28;83611;-47
2024/01/30 01:20:29;;;;;;;21.42;13.90;;;23.60;38.70;;;;;;6171198;28;82997;-46
2024/01/30 01:23:29;;;;;;;22.35;14.13;;;23.60;38.80;;;;;;6171076;28;84210;-46
2024/01/30 01:26:30;;;;;;;19.88;12.90;;;23.60;38.70;;;;;;6170735;28;83871;-46
2024/01/30 01:29:30;;;;;;;19.02;13.13;;;23.60;38.70;;;;;;6161228;28;83156;-66
2024/01/30 01:32:31;;;;;;;22.17;14.10;;;23.60;38.70;;;;;;6165465;28;83975;-64
2024/01/30 01:35:31;;;;;;;21.13;14.13;;;23.60;38.70;;;;;;6170583;28;83312;-67
2024/01/30 01:38:32;;;;;;;20.67;13.77;;;23.60;38.60;;;;;;6159848;28;83297;-65
2024/01/30 01:41:32;;;;;;;22.63;14.25;;;23.60;38.60;;;;;;6169394;28;84217;-65
2024/01/30 01:44:33;;;;;;;22.00;14.98;;;23.50;38.60;;;;;;6170375;28;83263;-65
2024/01/30 01:47:33;;;;;;;21.00;14.48;;;23.50;38.40;;;;;;6167956;28;83614;-66
2024/01/30 01:50:34;;;;;;;23.38;15.18;;;23.50;38.50;;;;;;6163648;28;84514;-66
2024/01/30 01:53:34;;;;;;;21.38;14.98;;;23.50;38.50;;;;;;6170889;28;83308;-66
2024/01/30 01:56:35;;;;;;;22.25;14.73;;;23.50;38.50;;;;;;6150080;28;83477;-67
2024/01/30 01:59:36;;;;;;;23.48;14.55;;;23.50;38.50;;;;;;6151614;28;83166;-67
2024/01/30 02:02:36;;;;;;;24.40;15.68;;;23.50;38.50;;;;;;6164906;28;84808;-68
2024/01/30 02:05:37;;;;;;;23.55;15.38;;;23.50;38.50;;;;;;6168513;28;83253;-61
2024/01/30 02:08:37;;;;;;;21.88;15.23;;;23.50;38.50;;;;;;6172974;28;84598;-60
2024/01/30 02:11:38;;;;;;;22.92;15.82;;;23.50;38.50;;;;;;6170377;28;82711;-61
2024/01/30 02:14:39;;;;;;;25.60;15.20;;;23.50;38.40;;;;;;6148468;28;84136;-59
2024/01/30 02:17:39;;;;;;;24.63;14.85;;;23.50;38.50;;;;;;6172139;28;83689;-59
2024/01/30 02:20:40;;;;;;;21.60;14.85;;;23.50;38.50;;;;;;6172945;28;90782;-59
2024/01/30 02:23:40;;;;;;;22.63;15.93;;;23.50;38.60;;;;;;6172015;28;83445;-69
2024/01/30 02:26:41;;;;;;;22.45;14.85;;;23.50;39.20;;;;;;6160526;28;83582;-69
2024/01/30 02:29:41;;;;;;;24.27;15.02;;;23.50;38.70;;;;;;6150703;28;83798;-70
2024/01/30 02:32:42;;;;;;;22.23;14.90;;;23.50;38.60;;;;;;6148064;28;82693;-68
2024/01/30 02:35:42;;;;;;;20.88;14.82;;;23.50;38.50;;;;;;6147918;28;83293;-70
2024/01/30 02:38:43;;;;;;;24.35;15.90;;;23.40;38.50;;;;;;6148799;28;83562;-70
2024/01/30 02:41:43;;;;;;;21.35;14.93;;;23.50;38.50;;;;;;6160832;28;82918;-69
2024/01/30 02:44:44;;;;;;;22.55;14.38;;;23.50;38.50;;;;;;6147752;28;84696;-70
2024/01/30 02:47:44;;;;;;;23.50;14.73;;;23.50;38.60;;;;;;6163207;28;83177;-69
2024/01/30 02:50:45;;;;;;;21.63;14.43;;;23.50;38.70;;;;;;6175738;28;85235;-68
2024/01/30 02:53:46;;;;;;;24.73;15.25;;;23.50;38.60;;;;;;6157968;28;83894;-69
2024/01/30 02:56:48;;;;;;;22.27;14.80;;;23.40;38.60;;;;;;6152186;28;83607;-68
2024/01/30 02:59:48;;;;;;;24.55;15.00;;;23.40;38.60;;;;;;6135321;28;85920;-69
2024/01/30 03:02:49;;;;;;;21.63;15.02;;;23.50;38.60;;;;;;6141824;28;85435;-68
2024/01/30 03:05:49;;;;;;;23.10;14.38;;;23.50;38.70;;;;;;6152034;28;83413;-67
2024/01/30 03:08:50;;;;;;;23.67;14.55;;;23.40;38.60;;;;;;6127629;28;83854;-67
2024/01/30 03:11:50;;;;;;;23.27;14.88;;;23.40;38.70;;;;;;6148706;28;83478;-66
2024/01/30 03:14:51;;;;;;;22.08;14.20;;;23.40;38.80;;;;;;6151610;28;82850;-67
2024/01/30 03:17:51;;;;;;;22.45;15.43;;;23.40;38.70;;;;;;6151234;28;83151;-68
2024/01/30 03:20:52;;;;;;;18.90;13.35;;;23.50;38.70;;;;;;6147077;28;83349;-67
2024/01/30 03:23:53;;;;;;;21.67;15.05;;;23.50;38.60;;;;;;6141795;28;83488;-67
2024/01/30 03:26:53;;;;;;;21.65;15.18;;;23.50;38.60;;;;;;6139716;28;84063;-67
2024/01/30 03:29:54;;;;;;;21.10;14.40;;;23.50;38.60;;;;;;6140108;28;83303;-68
2024/01/30 03:32:54;;;;;;;22.88;14.93;;;23.40;38.50;;;;;;6138526;28;84056;-67
2024/01/30 03:35:55;;;;;;;22.40;14.60;;;23.40;38.50;;;;;;6151211;28;83196;-60
2024/01/30 03:38:55;;;;;;;22.08;14.48;;;23.40;38.50;;;;;;6151059;28;83200;-58
2024/01/30 03:41:56;;;;;;;21.55;14.23;;;23.40;38.30;;;;;;6150847;28;83340;-60
2024/01/30 03:44:56;;;;;;;22.00;13.38;;;23.40;38.40;;;;;;6148698;28;86522;-60
2024/01/30 03:47:57;;;;;;;20.08;13.95;;;23.40;38.40;;;;;;6150988;28;82758;-60
2024/01/30 03:50:57;;;;;;;23.38;14.18;;;23.40;38.40;;;;;;6149043;28;83500;-59
2024/01/30 03:53:58;;;;;;;19.90;13.25;;;23.40;38.40;;;;;;6150288;28;82981;-69
2024/01/30 03:56:58;;;;;;;21.55;13.93;;;23.40;38.40;;;;;;6150716;28;83024;-50
2024/01/30 03:59:59;;;;;;;19.10;12.85;;;23.40;38.20;;;;;;6149833;28;83471;-49
2024/01/30 04:02:59;;;;;;;19.13;13.35;;;23.40;38.20;;;;;;6146250;28;84164;-45
2024/01/30 04:06:00;;;;;;;21.20;13.60;;;23.40;38.40;;;;;;6138833;28;85056;-47
2024/01/30 04:09:00;;;;;;;23.80;15.18;;;23.40;38.50;;;;;;6145078;28;82969;-51
2024/01/30 04:12:02;;;;;;;23.05;12.88;;;23.40;38.40;;;;;;6150189;28;83207;-46
2024/01/30 04:15:03;;;;;;;16.45;11.80;;;23.40;39.00;;;;;;6149684;28;84262;-48
2024/01/30 04:18:04;;;;;;;19.92;13.82;;;23.30;38.90;;;;;;6140133;28;83244;-47
2024/01/30 04:21:04;;;;;;;20.83;13.18;;;23.30;38.10;;;;;;6150707;28;83633;-48
2024/01/30 04:24:05;;;;;;;20.10;13.13;;;23.40;38.50;;;;;;6150210;28;83694;-47
2024/01/30 04:27:05;;;;;;;20.42;13.23;;;23.40;38.30;;;;;;6145818;28;83047;-49
2024/01/30 04:30:06;;;;;;;21.10;13.52;;;23.40;37.70;;;;;;6143121;28;83171;-49
2024/01/30 04:33:06;;;;;;;19.80;12.48;;;23.50;37.60;;;;;;6150790;28;83484;-52
2024/01/30 04:36:07;;;;;;;19.25;12.90;;;23.50;37.50;;;;;;6148772;28;85108;-52
2024/01/30 04:39:08;;;;;;;23.63;14.07;;;23.60;37.60;;;;;;6149325;28;83262;-53
2024/01/30 04:42:09;;;;;;;18.73;12.98;;;23.70;37.70;;;;;;6150246;28;83196;-53
2024/01/30 04:45:09;;;;;;;20.88;13.32;;;23.70;37.60;;;;;;6149437;28;83413;-51
2024/01/30 04:48:10;;;;;;;22.38;14.52;;;23.70;37.40;;;;;;6147849;28;83853;-47
2024/01/30 04:51:10;;;;;;;20.88;13.52;;;23.80;37.90;;;;;;6149368;28;83273;-50
2024/01/30 04:54:11;;;;;;;21.15;13.40;;;23.80;37.80;;;;;;6149492;28;86294;-50
2024/01/30 04:57:12;;;;;;;22.23;13.48;;;23.90;37.40;;;;;;6149848;28;82947;-56
2024/01/30 05:00:12;;;;;;;23.85;14.85;;;23.90;37.50;;;;;;6147113;28;83393;-53
2024/01/30 05:03:13;;;;;;;20.20;12.55;;;24.00;38.60;;;;;;6148613;28;82827;-53
2024/01/30 05:06:13;;;;;;;23.45;15.05;;;24.00;39.00;;;;;;6147620;28;83611;-52
2024/01/30 05:09:14;;;;;;;19.40;13.02;;;24.00;40.30;;;;;;6147376;28;83358;-47
2024/01/30 05:12:14;;;;;;;21.77;12.52;;;24.10;40.30;;;;;;6149340;28;83522;-51
2024/01/30 05:15:15;;;;;;;18.50;12.13;;;24.10;40.10;;;;;;6138718;28;88865;-54
2024/01/30 05:18:15;;;;;;;18.90;11.93;;;24.10;40.40;;;;;;6148159;28;83561;-55
2024/01/30 05:21:16;;;;;;;22.60;13.07;;;24.10;39.90;;;;;;6146584;28;83434;-53
2024/01/30 05:24:16;;;;;;;18.88;11.88;;;24.10;39.90;;;;;;6135714;28;82736;-50
2024/01/30 05:27:17;;;;;;;18.92;12.70;;;24.10;40.10;;;;;;6147451;28;85347;-53
2024/01/30 05:30:17;;;;;;;20.55;11.98;;;24.00;40.10;;;;;;6148962;28;83810;-50
2024/01/30 05:33:18;;;;;;;26.63;14.70;;;24.10;40.10;;;;;;6146264;28;87241;-49
2024/01/30 05:36:18;;;;;;;24.65;15.60;;;24.00;38.40;;;;;;6148039;28;83186;-49
2024/01/30 05:39:18;;;;;;;31.33;18.13;;;23.80;37.20;;;;;;6146256;28;83189;-56
2024/01/30 05:42:19;;;;;;;27.77;17.65;;;23.70;36.90;;;;;;6142721;28;83139;-48
2024/01/30 05:45:19;;;;;;;30.40;18.30;;;23.60;36.10;;;;;;6140719;28;83368;-66
2024/01/30 05:48:20;;;;;;;30.13;17.75;;;23.50;35.90;;;;;;6150619;28;89169;-67
2024/01/30 05:51:20;;;;;;;28.92;18.98;;;23.40;36.80;;;;;;6153623;28;87596;-68
2024/01/30 05:54:21;;;;;;;29.17;17.77;;;23.40;36.10;;;;;;6148613;28;84233;-69
2024/01/30 05:57:21;;;;;;;30.33;17.25;;;23.30;36.40;;;;;;6153602;28;83363;-68
2024/01/30 06:00:22;;;;;;;26.83;16.58;;;23.30;36.50;;;;;;6168079;28;83135;-68
2024/01/30 06:03:22;;;;;;;26.55;17.10;;;23.40;36.40;;;;;;6168361;28;83479;-69
2024/01/30 06:06:23;;;;;;;25.05;16.55;;;23.40;36.50;;;;;;6171870;28;83061;-67
2024/01/30 06:09:23;;;;;;;25.77;16.80;;;23.30;36.40;;;;;;6170675;28;84358;-70
2024/01/30 06:12:24;;;;;;;25.80;17.05;;;23.30;36.30;;;;;;6161485;28;83389;-67
2024/01/30 06:15:24;;;;;;;28.23;16.98;;;23.30;36.30;;;;;;6159937;28;83691;-68
2024/01/30 06:18:27;;;;;;;27.90;16.80;;;23.30;36.30;;;;;;6161126;28;83490;-69
2024/01/30 06:21:27;;;;;;;25.65;16.67;;;23.30;36.30;;;;;;6169913;28;83047;-69
2024/01/30 06:24:28;;;;;;;28.30;16.67;;;23.30;36.40;;;;;;6161620;28;82987;-68
2024/01/30 06:27:28;;;;;;;24.30;16.15;;;23.30;36.40;;;;;;6173244;28;83052;-69
2024/01/30 06:30:28;;;;;;;25.05;16.23;;;23.30;36.30;;;;;;6175474;28;83211;-68
2024/01/30 06:33:29;;;;;;;27.58;17.00;;;23.20;36.20;;;;;;6174439;28;83290;-69
2024/01/30 06:36:29;;;;;;;28.23;16.08;;;23.20;36.10;;;;;;6175025;28;83110;-68
2024/01/30 06:39:30;;;;;;;27.20;17.65;;;23.20;36.00;;;;;;6174818;28;85419;-67
2024/01/30 06:42:30;;;;;;;27.40;16.55;;;23.20;35.90;;;;;;6175294;28;83632;-68
2024/01/30 06:45:31;;;;;;;26.70;15.95;;;23.20;35.80;;;;;;6173203;28;85120;-68
2024/01/30 06:48:31;;;;;;;25.83;16.60;;;23.20;35.70;;;;;;6173389;28;83104;-67
2024/01/30 06:51:32;;;;;;;29.27;16.88;;;23.20;35.70;;;;;;6174596;28;82766;-68
2024/01/30 06:54:33;;;;;;;25.83;16.52;;;23.20;35.60;;;;;;6153839;28;84648;-69
2024/01/30 06:57:33;;;;;;;23.88;16.48;;;23.20;35.60;;;;;;6151277;28;85720;-68
2024/01/30 07:00:34;;;;;;;26.00;17.02;;;23.20;35.50;;;;;;6157631;28;83515;-50
2024/01/30 07:03:34;;;;;;;23.63;15.77;;;23.20;35.50;;;;;;6153854;28;84790;-53
2024/01/30 07:06:35;;;;;;;24.45;15.95;;;23.20;35.50;;;;;;6154577;28;83280;-51
2024/01/30 07:09:36;;;;;;;28.30;16.90;;;23.30;35.60;;;;;;6151817;28;85437;-54
2024/01/30 07:12:36;;;;;;;27.23;16.05;;;23.30;35.50;;;;;;6152799;28;83191;-51
2024/01/30 07:15:37;;;;;;;24.27;16.25;;;23.30;35.40;;;;;;6165527;28;85717;-49
2024/01/30 07:18:37;;;;;;;23.08;15.10;;;23.30;35.30;;;;;;6163295;28;82899;-53
2024/01/30 07:21:40;;;;;;;26.75;16.20;;;23.30;35.30;;;;;;6152609;28;83054;-54
2024/01/30 07:24:40;;;;;;;23.92;15.02;;;23.40;35.30;;;;;;6152750;28;83031;-55
2024/01/30 07:27:41;;;;;;;24.33;14.98;;;23.40;35.40;;;;;;6158657;28;83676;-54
2024/01/30 07:30:42;;;;;;;24.60;14.88;;;23.40;35.40;;;;;;6160050;28;83912;-55
2024/01/30 07:33:42;;;;;;;26.23;15.02;;;23.50;35.40;;;;;;6153366;28;83335;-55
2024/01/30 07:36:43;;;;;;;19.90;14.18;;;23.50;35.40;;;;;;6152727;28;83173;-65
2024/01/30 07:39:43;;;;;;;21.42;14.25;;;23.50;35.40;;;;;;6165206;28;83972;-64
2024/01/30 07:42:44;;;;;;;22.70;13.68;;;23.50;35.50;;;;;;6176039;28;82637;-64
2024/01/30 07:45:44;;;;;;;22.48;13.88;;;23.50;35.60;;;;;;6163603;28;83716;-65
2024/01/30 07:48:45;;;;;;;20.10;12.77;;;23.60;35.60;;;;;;6168593;28;83233;-65
2024/01/30 07:51:46;;;;;;;20.27;13.45;;;23.60;35.70;;;;;;6162145;28;83555;-65
2024/01/30 07:54:46;;;;;;;20.20;13.38;;;23.60;35.80;;;;;;6175098;28;84183;-48
2024/01/30 07:57:47;;;;;;;21.77;13.07;;;23.70;36.00;;;;;;6173937;28;83016;-49
2024/01/30 08:00:48;;;;;;;19.13;12.40;;;23.70;36.00;;;;;;6151481;28;83440;-49
2024/01/30 08:03:48;;;;;;;18.70;13.00;;;23.80;36.00;;;;;;6150457;28;83127;-49
2024/01/30 08:06:49;;;;;;;21.23;12.65;;;23.80;36.00;;;;;;6150795;28;83016;-47
2024/01/30 08:09:49;;;;;;;19.85;14.00;;;23.80;36.00;;;;;;6146318;28;83188;-48
2024/01/30 08:12:49;;;;;;;20.15;12.85;;;23.80;36.00;;;;;;6156010;28;83327;-64
2024/01/30 08:15:50;;;;;;;23.85;14.20;;;23.90;36.10;;;;;;6153304;28;84105;-64
2024/01/30 08:18:50;;;;;;;19.30;13.55;;;24.00;36.10;;;;;;6152598;28;84069;-64
2024/01/30 08:21:51;;;;;;;17.75;12.88;;;24.00;36.30;;;;;;6152107;28;84717;-64
2024/01/30 08:24:51;;;;;;;19.33;13.48;;;24.00;36.30;;;;;;6152368;28;83726;-65
2024/01/30 08:27:52;;;;;;;18.67;12.77;;;24.10;36.40;;;;;;6159377;28;83841;-64
2024/01/30 08:30:52;;;;;;;20.50;13.40;;;24.10;36.40;;;;;;6156419;28;83046;-69
2024/01/30 08:33:53;;;;;;;15.77;11.70;;;24.10;36.50;;;;;;6152699;28;83308;-68
2024/01/30 08:36:53;;;;;;;19.77;13.30;;;24.10;36.40;;;;;;6152065;28;87012;-68
2024/01/30 08:39:54;;;;;;;19.05;12.18;;;24.20;36.50;;;;;;6152060;28;82804;-68
2024/01/30 08:42:54;;;;;;;19.90;12.57;;;24.20;36.60;;;;;;6151621;28;83647;-69
2024/01/30 08:45:57;;;;;;;20.45;11.90;;;24.30;36.70;;;;;;6149704;28;84255;-70
2024/01/30 08:48:57;;;;;;;17.73;12.52;;;24.30;36.70;;;;;;6152727;28;83474;-68
2024/01/30 08:51:58;;;;;;;21.33;12.48;;;24.30;37.00;;;;;;6170754;28;83060;-67
2024/01/30 08:54:58;;;;;;;19.10;12.50;;;24.40;36.90;;;;;;6160574;28;84261;-67
2024/01/30 08:57:59;;;;;;;18.52;11.15;;;24.40;36.90;;;;;;6170909;28;85493;-67
2024/01/30 09:00:59;;;;;;;18.17;12.75;;;24.40;36.90;;;;;;6162516;28;83321;-67
2024/01/30 09:04:00;;;;;;;17.67;11.93;;;24.50;36.90;;;;;;6173272;28;84863;-69
2024/01/30 09:07:00;;;;;;;20.77;13.48;;;24.50;36.80;;;;;;6165397;28;83695;-48
2024/01/30 09:10:01;;;;;;;18.50;12.15;;;24.60;36.60;;;;;;6169397;28;83531;-47
2024/01/30 09:13:01;;;;;;;18.55;12.25;;;24.60;36.50;;;;;;6173087;28;83400;-49
2024/01/30 09:16:02;;;;;;;19.80;12.43;;;24.60;36.60;;;;;;6173486;28;83269;-50
2024/01/30 09:19:02;;;;;;;19.40;12.57;;;24.70;36.60;;;;;;6157973;28;82941;-48
2024/01/30 09:22:03;;;;;;;18.48;13.05;;;24.70;36.40;;;;;;6149429;28;83347;-48
2024/01/30 09:25:03;;;;;;;22.48;14.95;;;24.70;36.40;;;;;;6150275;28;83404;-68
2024/01/30 09:28:04;;;;;;;23.85;14.90;;;24.70;36.30;;;;;;6161906;28;83202;-70
2024/01/30 09:31:04;;;;;;;22.80;15.13;;;24.80;36.30;;;;;;6148832;28;85342;-69
2024/01/30 09:34:05;;;;;;;25.25;15.35;;;24.90;36.30;;;;;;6149851;28;83275;-69
2024/01/30 09:37:05;;;;;;;22.52;15.35;;;24.90;36.30;;;;;;6149214;28;87572;-64
2024/01/30 09:40:06;;;;;;;21.55;14.50;;;24.90;36.30;;;;;;6149886;28;84021;-67
2024/01/30 09:43:06;;;;;;;25.27;14.88;;;24.90;36.30;;;;;;6150266;28;82943;-67
2024/01/30 09:46:07;;;;;;;20.98;14.60;;;25.00;36.40;;;;;;6150436;28;83263;-67
2024/01/30 09:49:07;;;;;;;23.65;14.52;;;25.10;36.40;;;;;;6150921;28;83111;-67
2024/01/30 09:52:08;;;;;;;20.77;13.50;;;25.10;36.40;;;;;;6170191;28;83309;-67
2024/01/30 09:55:08;;;;;;;19.55;13.77;;;25.20;36.40;;;;;;6161966;28;83660;-66
2024/01/30 09:58:09;;;;;;;24.48;15.20;;;25.20;36.50;;;;;;6174849;28;83115;-67
2024/01/30 10:01:10;;;;;;;21.58;13.63;;;25.20;36.50;;;;;;6176270;28;84436;-64
2024/01/30 10:04:11;;;;;;;21.98;13.80;;;25.20;36.50;;;;;;6164761;28;82928;-63
2024/01/30 10:07:12;;;;;;;18.90;13.10;;;25.20;36.60;;;;;;6175830;28;85173;-64
2024/01/30 10:10:13;;;;;;;20.70;13.80;;;25.30;36.60;;;;;;6155153;28;83557;-65
2024/01/30 10:13:13;;;;;;;22.48;14.30;;;25.30;36.60;;;;;;6172502;28;83276;-65
2024/01/30 10:16:14;;;;;;;19.85;13.82;;;25.40;36.50;;;;;;6176120;28;83241;-65
2024/01/30 10:19:14;;;;;;;21.92;14.20;;;25.50;36.40;;;;;;6176614;28;83734;-65
2024/01/30 10:22:15;;;;;;;19.45;13.10;;;25.50;36.40;;;;;;6176152;28;83115;-55
2024/01/30 10:25:15;;;;;;;18.40;12.23;;;25.50;36.50;;;;;;6171701;28;90484;-55
2024/01/30 10:28:16;;;;;;;19.42;13.05;;;25.40;37.10;;;;;;6176019;28;83327;-53
2024/01/30 10:31:16;;;;;;;19.55;12.75;;;25.40;36.50;;;;;;6143075;28;83729;-54
2024/01/30 10:34:17;;;;;;;20.25;13.30;;;25.50;36.70;;;;;;6148888;28;83475;-53
2024/01/30 10:37:17;;;;;;;16.02;11.32;;;25.50;36.70;;;;;;6152248;28;83033;-50
2024/01/30 10:40:18;;;;;;;18.38;11.05;;;25.60;36.60;;;;;;6152599;28;83690;-64
2024/01/30 10:43:18;;;;;;;14.70;10.82;;;25.70;36.60;;;;;;6152352;28;84721;-63
2024/01/30 10:46:19;;;;;;;16.95;10.82;;;25.80;36.50;;;;;;6152228;28;83710;-64
2024/01/30 10:49:19;;;;;;;14.52;10.15;;;25.90;36.70;;;;;;6152593;28;84104;-65
2024/01/30 10:52:20;;;;;;;17.58;10.48;;;26.00;36.50;;;;;;6149095;28;83121;-65
2024/01/30 10:55:20;;;;;;;16.05;10.05;;;26.10;36.50;;;;;;6128122;28;83040;-65
2024/01/30 10:58:21;;;;;;;15.38;9.82;;;26.20;36.50;;;;;;6152985;28;86535;-69
2024/01/30 11:01:24;;;;;;;17.85;10.27;;;26.20;36.50;;;;;;6144339;28;81655;-71
2024/01/30 11:04:25;;;;;;;14.00;9.77;;;26.20;36.40;;;;;;6151550;28;83160;-70
2024/01/30 11:07:26;;;;;;;14.27;9.52;;;26.30;36.40;;;;;;6155173;28;83610;-69
2024/01/30 11:10:26;;;;;;;15.07;9.77;;;26.30;36.40;;;;;;6154693;28;82409;-69
2024/01/30 11:13:27;;;;;;;15.98;9.18;;;26.40;36.30;;;;;;6154262;28;80250;-69
2024/01/30 11:16:28;;;;;;;14.52;9.88;;;26.40;36.40;;;;;;6154374;28;81658;-64
2024/01/30 11:19:28;;;;;;;14.35;8.75;;;26.40;36.30;;;;;;6153539;28;80446;-65
2024/01/30 11:22:29;;;;;;;12.38;9.00;;;26.50;36.30;;;;;;6147750;28;81970;-66
2024/01/30 11:25:29;;;;;;;12.30;8.32;;;26.50;36.30;;;;;;6153388;28;80882;-65
2024/01/30 11:28:30;;;;;;;15.55;9.32;;;26.50;36.40;;;;;;6154420;28;80371;-65
2024/01/30 11:31:30;;;;;;;11.60;8.13;;;26.50;36.40;;;;;;6144811;28;80976;-63
2024/01/30 11:34:31;;;;;;;13.10;8.63;;;26.50;36.40;;;;;;6153227;28;81549;-54
2024/01/30 11:37:31;;;;;;;14.05;7.95;;;26.60;36.40;;;;;;6142064;28;81383;-53
2024/01/30 11:40:32;;;;;;;13.75;8.13;;;26.60;36.40;;;;;;6148368;28;80686;-53
2024/01/30 11:43:34;;;;;;;14.60;8.85;;;26.60;36.40;;;;;;6153845;28;80523;-52
2024/01/30 11:46:35;;;;;;;12.50;8.48;;;26.70;36.50;;;;;;6154033;28;81029;-55
2024/01/30 11:49:36;;;;;;;12.13;7.82;;;26.70;36.40;;;;;;6153214;28;80553;-56
2024/01/30 11:52:36;;;;;;;16.00;8.70;;;26.80;36.40;;;;;;6154650;28;81540;-63
2024/01/30 11:55:37;;;;;;;12.93;8.50;;;26.80;36.30;;;;;;6149542;28;80681;-65
2024/01/30 11:58:38;;;;;;;12.75;9.15;;;26.80;36.30;;;;;;6145229;28;81323;-64
2024/01/30 12:01:38;;;;;;;14.15;8.63;;;26.90;36.30;;;;;;6154131;28;80445;-65
2024/01/30 12:04:39;;;;;;;21.00;10.20;;;26.90;36.30;;;;;;6153567;28;80919;-65
2024/01/30 12:07:39;;;;;;;14.70;9.95;;;26.90;36.20;;;;;;6148692;28;83224;-66
2024/01/30 12:10:40;;;;;;;15.65;9.38;;;26.90;36.20;;;;;;6143428;28;83583;-64
2024/01/30 12:13:40;;;;;;;14.13;9.18;;;27.00;36.30;;;;;;6157191;28;87268;-64
2024/01/30 12:16:44;;;;;;;12.13;8.88;;;27.00;36.30;;;;;;6172213;28;81065;-65
2024/01/30 12:19:45;;;;;;;15.75;9.48;;;27.10;36.20;;;;;;6152729;28;80411;-64
2024/01/30 12:22:45;;;;;;;15.20;9.85;;;27.00;36.20;;;;;;6152790;28;82217;-64
2024/01/30 12:25:46;;;;;;;16.95;11.15;;;27.10;36.20;;;;;;6153935;28;81781;-65
2024/01/30 12:28:46;;;;;;;15.45;9.88;;;27.10;36.00;;;;;;6150526;28;85107;-70
2024/01/30 12:31:47;;;;;;;13.85;10.10;;;27.20;36.00;;;;;;6144325;28;83064;-69
2024/01/30 12:34:47;;;;;;;20.45;10.88;;;27.20;36.10;;;;;;6138707;28;83351;-69
2024/01/30 12:37:48;;;;;;;14.25;10.20;;;27.20;36.00;;;;;;6149703;28;83332;-68
2024/01/30 12:40:48;;;;;;;16.15;10.95;;;27.20;36.00;;;;;;6150002;28;83456;-68
2024/01/30 12:43:49;;;;;;;19.98;11.10;;;27.30;35.90;;;;;;6150153;28;82824;-67
2024/01/30 12:46:49;;;;;;;14.82;10.50;;;27.30;35.90;;;;;;6137003;28;83282;-67
2024/01/30 12:49:53;;;;;;;15.23;9.88;;;27.30;35.80;;;;;;6150037;28;83878;-67
2024/01/30 12:52:53;;;;;;;15.82;10.60;;;27.40;35.80;;;;;;6144697;28;83438;-67
2024/01/30 12:55:54;;;;;;;14.82;10.05;;;27.40;35.70;;;;;;6144540;28;82870;-67
2024/01/30 12:58:54;;;;;;;18.73;10.77;;;27.50;35.70;;;;;;6149290;28;83621;-66
2024/01/30 13:01:55;;;;;;;14.07;10.35;;;27.50;35.60;;;;;;6148158;28;83434;-67
2024/01/30 13:04:55;;;;;;;13.65;9.75;;;27.50;35.50;;;;;;6149112;28;83003;-60
2024/01/30 13:07:57;;;;;;;15.75;9.70;;;27.70;35.30;;;;;;6152539;28;83154;-67
2024/01/30 13:10:57;;;;;;;13.93;9.43;;;27.90;35.10;;;;;;6138952;28;82868;-68
2024/01/30 13:13:58;;;;;;;14.43;9.55;;;28.10;34.90;;;;;;6137736;28;82883;-68
2024/01/30 13:16:58;;;;;;;17.77;10.15;;;28.30;34.70;;;;;;6153103;28;81802;-67
2024/01/30 13:19:59;;;;;;;13.63;9.52;;;28.50;34.40;;;;;;6148618;28;83061;-66
2024/01/30 13:22:59;;;;;;;12.95;8.73;;;28.60;34.20;;;;;;6152416;28;82679;-69
2024/01/30 13:26:00;;;;;;;14.40;9.30;;;28.70;34.20;;;;;;6150211;28;82589;-70
2024/01/30 13:29:00;;;;;;;15.95;8.73;;;28.70;34.20;;;;;;6151445;28;80843;-68
2024/01/30 13:32:01;;;;;;;10.82;7.97;;;28.60;34.30;;;;;;6151316;28;80682;-69
2024/01/30 13:35:01;;;;;;;12.88;8.55;;;28.60;34.50;;;;;;6152736;28;81025;-66
2024/01/30 13:38:02;;;;;;;11.98;7.93;;;28.50;34.50;;;;;;6140541;28;82458;-67
2024/01/30 13:41:02;;;;;;;11.10;8.23;;;28.30;34.60;;;;;;6152013;28;80897;-68
2024/01/30 13:44:03;;;;;;;9.93;8.05;;;28.10;34.90;;;;;;6151787;28;80471;-64
2024/01/30 13:47:03;;;;;;;10.68;7.28;;;27.90;35.10;;;;;;6150883;28;81264;-63
2024/01/30 13:50:04;;;;;;;13.10;7.50;;;27.70;35.30;;;;;;6144939;28;80108;-64
2024/01/30 13:53:04;;;;;;;10.48;6.72;;;27.60;35.50;;;;;;6151626;28;80933;-63
2024/01/30 13:56:06;;;;;;;13.50;7.55;;;27.50;35.60;;;;;;6151567;28;80386;-63
2024/01/30 13:59:07;;;;;;;11.82;7.93;;;27.30;35.90;;;;;;6140712;28;81147;-63
2024/01/30 14:02:10;;;;;;;12.23;8.45;;;27.20;35.90;;;;;;6148163;28;80529;-73
2024/01/30 14:05:10;;;;;;;14.57;8.65;;;27.20;35.70;;;;;;6136041;28;82567;-69
2024/01/30 14:08:11;;;;;;;15.07;8.32;;;27.10;35.80;;;;;;6148922;28;80916;-68
2024/01/30 14:11:11;;;;;;;21.30;8.57;;;27.00;36.20;;;;;;6147390;28;80949;-66
2024/01/30 14:14:12;;;;;;;17.63;9.20;;;27.00;36.10;;;;;;6151554;28;81618;-66
2024/01/30 14:17:12;;;;;;;21.10;9.57;;;27.10;36.40;;;;;;6147406;28;80968;-62
2024/01/30 14:20:13;;;;;;;17.73;9.98;;;27.20;36.50;;;;;;6143834;28;86975;-62
2024/01/30 14:23:13;;;;;;;22.00;13.18;;;27.20;36.80;;;;;;6144312;28;85965;-63
2024/01/30 14:26:14;;;;;;;72.30;24.50;;;27.00;36.20;;;;;;6147720;28;83347;-63
2024/01/30 14:29:14;;;;;;;46.53;28.00;;;26.70;33.70;;;;;;6147557;28;83596;-61
2024/01/30 14:32:15;;;;;;;42.45;28.08;;;26.40;33.20;;;;;;6147653;28;84057;-62
2024/01/30 14:35:15;;;;;;;52.80;28.83;;;26.20;33.20;;;;;;6148043;28;83132;-63
2024/01/30 14:38:16;;;;;;;53.97;29.85;;;26.10;32.70;;;;;;6148296;28;85123;-57
2024/01/30 14:41:16;;;;;;;60.97;32.80;;;25.90;32.70;;;;;;6149113;28;83696;-61
2024/01/30 14:44:17;;;;;;;60.55;33.30;;;25.70;32.60;;;;;;6145049;28;83260;-63
2024/01/30 14:47:17;;;;;;;51.92;32.75;;;25.50;32.60;;;;;;6147035;28;84611;-62
2024/01/30 14:50:18;;;;;;;47.33;30.58;;;25.30;32.60;;;;;;6151672;28;84238;-64
2024/01/30 14:53:18;;;;;;;55.50;30.67;;;25.20;32.70;;;;;;6150966;28;85446;-64
2024/01/30 14:56:20;;;;;;;48.85;29.98;;;25.10;32.60;;;;;;6149574;28;82951;-54
2024/01/30 14:59:21;;;;;;;57.78;32.38;;;24.90;32.70;;;;;;6149328;28;85841;-54
2024/01/30 15:02:21;;;;;;;53.92;34.13;;;24.80;33.30;;;;;;6152513;28;83500;-54
2024/01/30 15:05:22;;;;;;;53.80;32.03;;;24.60;32.60;;;;;;6142768;28;82863;-53
2024/01/30 15:08:23;;;;;;;50.70;31.20;;;24.30;33.60;;;;;;6146957;28;83358;-50
2024/01/30 15:11:24;;;;;;;50.15;31.02;;;24.10;33.00;;;;;;6149692;28;83053;-55
2024/01/30 15:14:24;;;;;;;51.80;27.88;;;24.00;33.70;;;;;;6138325;28;83581;-50
2024/01/30 15:17:25;;;;;;;44.45;25.48;;;24.10;34.80;;;;;;6149271;28;87223;-53